| Date | Time | Temp. (oF) | Dew Point (oF) | Rel. Hum. (%) | Press. (in.) | Wind Dir. | Wind Speed (mph) | Hourly Rainfall (in.) |
|
|---|---|---|---|---|---|---|---|---|---|
| 1 | 01/24 | 00:00 | 18 | 15 | 89 | 30.11 | NW | 0 | 0.00 |
| 2 | 01/23 | 23:00 | 21 | 18 | 90 | 30.12 | W | 1 | 0.00 |
| 3 | 01/23 | 22:00 | 21 | 18 | 88 | 30.13 | WSW | 0 | 0.00 |
| 4 | 01/23 | 21:00 | 23 | 19 | 87 | 30.13 | WSW | 0 | 0.00 |
| 5 | 01/23 | 20:00 | 25 | 19 | 81 | 30.14 | WSW | 0 | 0.00 |
| 6 | 01/23 | 19:00 | 28 | 21 | 77 | 30.15 | WSW | 1 | 0.00 |
| 7 | 01/23 | 18:00 | 30 | 22 | 72 | 30.15 | WSW | 0 | 0.00 |
| 8 | 01/23 | 17:00 | 32 | 22 | 69 | 30.13 | WSW | 1 | 0.00 |
| 9 | 01/23 | 16:00 | 33 | 22 | 65 | 30.15 | WSW | 2 | 0.00 |
| 10 | 01/23 | 15:00 | 33 | 23 | 67 | 30.16 | S | 4 | 0.00 |
| 11 | 01/23 | 14:00 | 32 | 22 | 68 | 30.19 | S | 4 | 0.00 |
| 12 | 01/23 | 13:00 | 31 | 23 | 72 | 30.23 | S | 3 | 0.00 |
| 13 | 01/23 | 12:00 | 25 | 19 | 79 | 30.29 | NE | 2 | 0.00 |
| 14 | 01/23 | 11:00 | 21 | 16 | 83 | 30.34 | E | 1 | 0.00 |
| 15 | 01/23 | 10:00 | 17 | 13 | 87 | 30.36 | SSE | 1 | 0.00 |
| 16 | 01/23 | 09:00 | 12 | 8 | 87 | 30.38 | S | 1 | 0.00 |
| 17 | 01/23 | 08:00 | 8 | 5 | 89 | 30.40 | SSW | 0 | 0.00 |
| 18 | 01/23 | 07:00 | 8 | 6 | 94 | 30.43 | NW | 1 | 0.00 |
| 19 | 01/23 | 06:00 | 8 | 6 | 92 | 30.45 | WNW | 2 | 0.00 |
| 20 | 01/23 | 05:00 | 9 | 6 | 91 | 30.42 | SSE | 2 | 0.00 |
| 21 | 01/23 | 04:00 | 11 | 9 | 92 | 30.43 | NW | 1 | 0.00 |
| 22 | 01/23 | 03:00 | 11 | 8 | 89 | 30.43 | NNW | 0 | 0.00 |
| 23 | 01/23 | 02:00 | 11 | 8 | 89 | 30.45 | WSW | 0 | 0.00 |
| 24 | 01/23 | 01:00 | 12 | 9 | 90 | 30.46 | WSW | 0 | 0.00 |